createdAt,value
2022-09-03T00:00:30.432Z,98.20
2022-09-03T00:03:40.635Z,98.30
2022-09-03T00:06:33.891Z,98.50
2022-09-03T00:09:31.898Z,98.70
2022-09-03T00:12:32.145Z,99.00
2022-09-03T00:15:21.269Z,99.00
2022-09-03T00:18:11.924Z,99.10
2022-09-03T00:21:12.789Z,99.40
2022-09-03T00:24:03.306Z,99.70
2022-09-03T00:26:55.047Z,99.90
2022-09-03T00:29:51.609Z,99.90
2022-09-03T00:32:47.377Z,99.90
2022-09-03T00:35:44.692Z,99.90
2022-09-03T00:38:30.544Z,99.90
2022-09-03T00:41:31.405Z,99.90
2022-09-03T00:44:38.560Z,99.90
2022-09-03T00:47:47.165Z,99.90
2022-09-03T00:51:25.902Z,99.90
2022-09-03T00:54:14.079Z,99.90
2022-09-03T00:57:35.276Z,99.90
2022-09-03T01:00:21.779Z,99.90
2022-09-03T01:03:11.625Z,99.90
2022-09-03T01:06:18.951Z,99.90
2022-09-03T01:10:05.839Z,99.90
2022-09-03T01:12:51.440Z,99.90
2022-09-03T01:15:53.628Z,99.90
2022-09-03T01:18:50.450Z,99.90
2022-09-03T01:22:05.287Z,99.90
2022-09-03T01:25:33.040Z,99.90
2022-09-03T01:28:21.973Z,99.90
2022-09-03T01:31:21.341Z,99.90
2022-09-03T01:34:22.240Z,99.90
2022-09-03T01:37:27.128Z,99.90
2022-09-03T01:40:16.039Z,99.90
2022-09-03T01:43:36.861Z,99.90
2022-09-03T01:46:42.032Z,99.90
2022-09-03T01:49:40.172Z,99.90
2022-09-03T01:52:42.103Z,99.90
2022-09-03T01:55:50.850Z,99.90
2022-09-03T01:58:43.236Z,99.90
2022-09-03T02:01:56.130Z,99.90
2022-09-03T02:04:43.455Z,99.90
2022-09-03T02:07:35.326Z,99.90
2022-09-03T02:10:29.948Z,99.90
2022-09-03T02:13:20.560Z,99.90
2022-09-03T02:16:20.363Z,99.90
2022-09-03T02:19:15.794Z,99.90
2022-09-03T02:22:01.571Z,99.90
2022-09-03T02:24:47.600Z,99.90
2022-09-03T02:27:33.732Z,99.90
2022-09-03T02:30:22.507Z,99.90
2022-09-03T02:33:09.113Z,99.90
2022-09-03T02:35:55.538Z,99.90
2022-09-03T02:38:43.104Z,99.90
2022-09-03T02:41:28.984Z,99.90
2022-09-03T02:44:37.711Z,99.90
2022-09-03T02:47:25.698Z,99.90
2022-09-03T02:50:11.192Z,99.90
2022-09-03T02:52:57.034Z,99.90
2022-09-03T02:55:42.551Z,99.90
2022-09-03T02:58:29.078Z,99.90
2022-09-03T03:01:21.821Z,99.90
2022-09-03T03:04:09.867Z,99.90
2022-09-03T03:06:56.017Z,99.90
2022-09-03T03:09:41.515Z,99.90
2022-09-03T03:12:27.352Z,99.90
2022-09-03T03:15:12.858Z,99.90
2022-09-03T03:17:58.512Z,99.90
2022-09-03T03:20:44.750Z,99.90
2022-09-03T03:23:32.410Z,99.90
2022-09-03T03:26:20.236Z,99.90
2022-09-03T03:29:06.177Z,99.90
2022-09-03T03:31:54.209Z,99.90
2022-09-03T03:34:40.057Z,99.90
2022-09-03T03:37:25.887Z,99.90
2022-09-03T03:40:11.864Z,99.90
2022-09-03T03:42:58.640Z,99.90
2022-09-03T03:45:44.390Z,99.90
2022-09-03T03:48:29.903Z,99.90
2022-09-03T03:51:15.963Z,99.90
2022-09-03T03:54:05.003Z,99.90
2022-09-03T03:56:55.770Z,99.90
2022-09-03T03:59:41.796Z,99.90
2022-09-03T04:02:27.464Z,99.90
2022-09-03T04:05:13.081Z,99.90
2022-09-03T04:08:02.811Z,99.90
2022-09-03T04:10:48.960Z,99.90
2022-09-03T04:13:39.620Z,99.90
2022-09-03T04:16:27.525Z,99.90
2022-09-03T04:19:13.593Z,99.90
2022-09-03T04:21:59.204Z,99.90
2022-09-03T04:24:45.043Z,99.90
2022-09-03T04:27:31.254Z,99.90
2022-09-03T04:30:17.204Z,99.90
2022-09-03T04:33:02.703Z,99.90
2022-09-03T04:35:48.364Z,99.90
2022-09-03T04:38:35.478Z,99.90
2022-09-03T04:41:24.940Z,99.90
2022-09-03T04:44:10.473Z,99.90
2022-09-03T04:46:56.095Z,99.90
2022-09-03T04:49:41.708Z,99.90
2022-09-03T04:52:31.468Z,99.90
2022-09-03T04:55:19.506Z,99.90
2022-09-03T04:58:07.756Z,99.90
2022-09-03T05:00:54.199Z,99.90
2022-09-03T05:03:39.798Z,99.90
2022-09-03T05:06:26.652Z,99.90
2022-09-03T05:09:12.305Z,99.90
2022-09-03T05:11:58.260Z,99.90
2022-09-03T05:14:43.743Z,99.90
2022-09-03T05:17:29.691Z,99.90
2022-09-03T05:20:21.662Z,99.90
2022-09-03T05:23:08.112Z,99.90
2022-09-03T05:25:58.719Z,99.90
2022-09-03T05:28:45.602Z,99.90
2022-09-03T05:31:32.283Z,99.90
2022-09-03T05:34:18.538Z,99.90
2022-09-03T05:37:04.350Z,99.90
2022-09-03T05:39:50.346Z,99.90
2022-09-03T05:42:37.974Z,99.90
2022-09-03T05:45:24.854Z,99.90
2022-09-03T05:48:10.416Z,99.90
2022-09-03T05:51:08.925Z,99.90
2022-09-03T05:53:55.652Z,99.90
2022-09-03T05:56:42.530Z,99.90
2022-09-03T05:59:28.069Z,99.90
2022-09-03T06:02:14.081Z,99.90
2022-09-03T06:04:59.969Z,99.90
2022-09-03T06:07:49.628Z,99.90
2022-09-03T06:10:40.844Z,99.90
2022-09-03T06:13:26.755Z,99.90
2022-09-03T06:16:12.648Z,99.90
2022-09-03T06:18:58.883Z,99.90
2022-09-03T06:21:46.317Z,99.90
2022-09-03T06:24:32.010Z,99.90
2022-09-03T06:27:20.488Z,99.90
2022-09-03T06:30:07.458Z,99.90
2022-09-03T06:32:54.149Z,99.90
2022-09-03T06:35:41.714Z,99.90
2022-09-03T06:38:37.807Z,99.90
2022-09-03T06:41:29.316Z,99.90
2022-09-03T06:44:16.009Z,99.90
2022-09-03T06:47:02.326Z,99.90
2022-09-03T06:49:48.142Z,99.90
2022-09-03T06:52:33.615Z,99.90
2022-09-03T06:55:19.493Z,99.90
2022-09-03T06:58:05.035Z,99.90
2022-09-03T07:00:53.024Z,99.90
2022-09-03T07:03:40.552Z,99.90
2022-09-03T07:06:28.577Z,99.90
2022-09-03T07:09:15.616Z,99.90
2022-09-03T07:12:01.329Z,99.90
2022-09-03T07:14:47.893Z,99.90
2022-09-03T07:17:37.075Z,99.90
2022-09-03T07:20:23.037Z,99.90
2022-09-03T07:23:08.728Z,99.90
2022-09-03T07:25:59.091Z,99.90
2022-09-03T07:28:49.052Z,99.90
2022-09-03T07:31:38.223Z,99.90
2022-09-03T07:34:25.621Z,99.90
2022-09-03T07:37:13.493Z,99.90
2022-09-03T07:40:03.446Z,99.50
2022-09-03T07:42:52.116Z,99.70
2022-09-03T07:45:41.262Z,99.00
2022-09-03T07:48:27.146Z,99.10
2022-09-03T07:51:12.845Z,98.30
2022-09-03T07:54:00.697Z,98.20
2022-09-03T07:56:46.758Z,97.50
2022-09-03T07:59:33.175Z,97.60
2022-09-03T08:02:18.589Z,96.90
2022-09-03T08:05:04.645Z,96.00
2022-09-03T08:07:51.089Z,96.10
2022-09-03T08:10:38.297Z,96.40
2022-09-03T08:13:24.551Z,95.90
2022-09-03T08:16:14.002Z,95.10
2022-09-03T08:18:59.900Z,95.50
2022-09-03T08:21:46.287Z,93.60
2022-09-03T08:24:33.258Z,93.60
2022-09-03T08:27:26.873Z,93.80
2022-09-03T08:30:13.295Z,92.70
2022-09-03T08:33:04.906Z,92.20
2022-09-03T08:35:54.923Z,90.80
2022-09-03T08:38:43.674Z,90.40
2022-09-03T08:41:52.571Z,90.30
2022-09-03T08:44:49.283Z,89.10
2022-09-03T08:47:43.251Z,89.50
2022-09-03T08:50:38.105Z,84.40
2022-09-03T08:53:29.772Z,88.60
2022-09-03T08:56:31.257Z,85.60
2022-09-03T08:59:17.224Z,87.60
2022-09-03T09:02:08.632Z,85.30
2022-09-03T09:05:14.110Z,82.80
2022-09-03T09:08:24.419Z,82.00
2022-09-03T09:11:40.378Z,83.60
2022-09-03T09:14:59.034Z,80.00
2022-09-03T09:18:09.916Z,80.80
2022-09-03T09:21:17.781Z,76.50
2022-09-03T09:24:22.007Z,77.90
2022-09-03T09:27:19.556Z,75.60
2022-09-03T09:30:05.781Z,76.70
2022-09-03T09:32:51.848Z,73.80
2022-09-03T09:35:41.315Z,71.20
2022-09-03T09:38:38.445Z,70.10
2022-09-03T09:41:29.549Z,70.80
2022-09-03T09:44:22.707Z,69.50
2022-09-03T09:47:40.278Z,67.20
2022-09-03T09:50:26.640Z,67.20
2022-09-03T09:53:16.307Z,67.40
2022-09-03T09:56:05.381Z,68.10
2022-09-03T09:58:53.556Z,69.30
2022-09-03T10:01:41.650Z,67.00
2022-09-03T10:04:33.464Z,65.60
2022-09-03T10:07:24.335Z,64.40
2022-09-03T10:10:13.459Z,64.00
2022-09-03T10:13:09.440Z,63.30
2022-09-03T10:16:05.354Z,62.10
2022-09-03T10:19:04.053Z,61.30
2022-09-03T10:22:08.797Z,61.00
2022-09-03T10:25:04.723Z,60.10
2022-09-03T10:27:54.048Z,60.00
2022-09-03T10:31:18.756Z,59.80
2022-09-03T10:34:21.444Z,58.40
2022-09-03T10:37:13.378Z,57.40
2022-09-03T10:40:20.291Z,56.30
2022-09-03T10:43:45.130Z,56.40
2022-09-03T10:47:23.199Z,55.20
2022-09-03T10:50:17.641Z,54.30
2022-09-03T10:53:41.897Z,54.30
2022-09-03T10:56:31.409Z,53.30
2022-09-03T10:59:29.004Z,53.90
2022-09-03T11:02:15.503Z,53.20
2022-09-03T11:05:20.879Z,53.10
2022-09-03T11:08:46.611Z,51.10
2022-09-03T11:11:38.136Z,51.50
2022-09-03T11:14:47.100Z,51.40
2022-09-03T11:17:57.007Z,50.70
2022-09-03T11:20:43.969Z,50.90
2022-09-03T11:23:33.695Z,50.20
2022-09-03T11:26:23.133Z,48.80
2022-09-03T11:29:38.168Z,49.20
2022-09-03T11:32:59.922Z,49.00
2022-09-03T11:35:45.930Z,46.60
2022-09-03T11:38:32.093Z,47.70
2022-09-03T11:41:29.708Z,46.70
2022-09-03T11:44:19.627Z,46.00
2022-09-03T11:47:23.336Z,45.80
2022-09-03T11:50:25.591Z,44.90
2022-09-03T11:53:33.270Z,45.40
2022-09-03T11:56:20.391Z,45.00
2022-09-03T11:59:06.019Z,44.70
2022-09-03T12:01:57.479Z,45.40
2022-09-03T12:05:02.507Z,45.30
2022-09-03T12:08:09.977Z,43.10
2022-09-03T12:11:17.038Z,42.50
2022-09-03T12:14:33.430Z,42.80
2022-09-03T12:18:10.409Z,41.10
2022-09-03T12:20:55.899Z,40.60
2022-09-03T12:23:45.016Z,41.40
2022-09-03T12:26:30.487Z,41.00
2022-09-03T12:29:28.178Z,41.20
2022-09-03T12:32:18.650Z,39.90
2022-09-03T12:35:58.384Z,40.00
2022-09-03T12:38:26.612Z,40.10
2022-09-03T12:41:28.221Z,40.50
2022-09-03T12:44:13.885Z,39.20
2022-09-03T12:47:39.571Z,39.80
2022-09-03T12:50:25.622Z,37.80
2022-09-03T12:53:15.552Z,38.10
2022-09-03T12:56:02.987Z,38.10
2022-09-03T12:58:49.785Z,38.20
2022-09-03T13:01:52.680Z,38.10
2022-09-03T13:04:40.917Z,37.50
2022-09-03T13:07:35.187Z,37.40
2022-09-03T13:10:31.297Z,38.80
2022-09-03T13:13:30.035Z,38.00
2022-09-03T13:16:41.778Z,37.70
2022-09-03T13:19:44.561Z,37.40
2022-09-03T13:22:47.007Z,37.00
2022-09-03T13:26:06.218Z,36.60
2022-09-03T13:29:26.042Z,34.50
2022-09-03T13:32:29.544Z,36.00
2022-09-03T13:35:29.543Z,35.50
2022-09-03T13:38:53.384Z,34.90
2022-09-03T13:41:54.283Z,35.00
2022-09-03T13:44:50.268Z,34.70
2022-09-03T13:48:18.279Z,35.40
2022-09-03T13:51:13.677Z,35.30
2022-09-03T13:54:04.750Z,35.00
2022-09-03T13:57:08.833Z,34.60
2022-09-03T14:00:10.172Z,35.30
2022-09-03T14:03:19.298Z,35.20
2022-09-03T14:06:30.259Z,34.70
2022-09-03T14:09:36.065Z,34.90
2022-09-03T14:12:46.485Z,35.60
2022-09-03T14:15:52.725Z,35.10
2022-09-03T14:19:07.507Z,34.90
2022-09-03T14:22:01.785Z,35.50
2022-09-03T14:25:01.463Z,35.10
2022-09-03T14:27:47.202Z,35.90
2022-09-03T14:31:10.895Z,35.10
2022-09-03T14:34:05.884Z,35.60
2022-09-03T14:37:10.094Z,34.60
2022-09-03T14:39:59.780Z,34.60
2022-09-03T14:43:06.791Z,35.50
2022-09-03T14:46:43.494Z,35.20
2022-09-03T14:49:52.588Z,35.70
2022-09-03T14:53:12.223Z,35.00
2022-09-03T14:56:26.121Z,34.70
2022-09-03T14:59:34.839Z,34.90
2022-09-03T15:02:43.115Z,35.60
2022-09-03T15:05:42.571Z,35.90
2022-09-03T15:08:54.536Z,35.00
2022-09-03T15:12:16.647Z,34.60
2022-09-03T15:15:21.890Z,35.40
2022-09-03T15:18:43.191Z,34.80
2022-09-03T15:21:35.336Z,34.90
2022-09-03T15:24:36.261Z,35.50
2022-09-03T15:27:42.089Z,35.70
2022-09-03T15:30:54.696Z,35.80
2022-09-03T15:33:52.961Z,35.10
2022-09-03T15:36:43.606Z,35.10
2022-09-03T15:39:37.036Z,35.20
2022-09-03T15:42:27.774Z,34.60
2022-09-03T15:45:30.752Z,35.50
2022-09-03T15:48:23.579Z,35.30
2022-09-03T15:51:13.485Z,36.00
2022-09-03T15:54:19.959Z,36.00
2022-09-03T15:57:18.141Z,36.40
2022-09-03T16:00:21.896Z,36.40
2022-09-03T16:03:11.443Z,36.40
2022-09-03T16:06:09.869Z,36.50
2022-09-03T16:09:05.167Z,36.30
2022-09-03T16:12:10.556Z,36.80
2022-09-03T16:15:44.664Z,37.00
2022-09-03T16:18:39.543Z,37.70
2022-09-03T16:21:35.700Z,37.50
2022-09-03T16:24:28.873Z,37.60
2022-09-03T16:27:38.446Z,38.90
2022-09-03T16:30:33.064Z,40.70
2022-09-03T16:33:23.698Z,41.00
2022-09-03T16:36:37.832Z,41.20
2022-09-03T16:39:45.422Z,41.80
2022-09-03T16:42:49.517Z,42.40
2022-09-03T16:45:55.145Z,42.40
2022-09-03T16:48:51.539Z,42.40
2022-09-03T16:52:04.886Z,42.80
2022-09-03T16:54:55.868Z,43.20
2022-09-03T16:57:58.362Z,44.20
2022-09-03T17:01:03.194Z,44.60
2022-09-03T17:04:21.020Z,45.10
2022-09-03T17:07:12.796Z,45.50
2022-09-03T17:10:21.727Z,45.50
2022-09-03T17:13:35.044Z,46.20
2022-09-03T17:16:53.339Z,46.80
2022-09-03T17:19:44.742Z,47.40
2022-09-03T17:22:57.643Z,47.90
2022-09-03T17:26:06.653Z,48.50
2022-09-03T17:28:59.076Z,49.80
2022-09-03T17:32:32.036Z,50.60
2022-09-03T17:35:33.853Z,51.70
2022-09-03T17:38:41.012Z,51.90
2022-09-03T17:42:12.077Z,52.20
2022-09-03T17:45:29.455Z,53.70
2022-09-03T17:48:40.350Z,54.80
2022-09-03T17:52:20.930Z,56.00
2022-09-03T17:55:31.546Z,58.60
2022-09-03T17:58:32.357Z,62.50
2022-09-03T18:01:24.874Z,65.60
2022-09-03T18:04:28.893Z,71.10
2022-09-03T18:07:23.927Z,78.70
2022-09-03T18:10:16.257Z,84.40
2022-09-03T18:13:25.004Z,85.30
2022-09-03T18:16:29.454Z,88.10
2022-09-03T18:20:00.892Z,91.60
2022-09-03T18:23:46.787Z,92.20
2022-09-03T18:26:56.703Z,93.00
2022-09-03T18:30:14.829Z,92.80
2022-09-03T18:33:18.995Z,94.70
2022-09-03T18:36:24.647Z,95.10
2022-09-03T18:39:45.078Z,96.70
2022-09-03T18:43:33.328Z,99.00
2022-09-03T18:51:07.559Z,99.90
2022-09-03T18:55:06.843Z,99.90
2022-09-03T18:58:26.945Z,99.90
2022-09-03T19:01:49.619Z,99.90
2022-09-03T19:05:25.664Z,99.90
2022-09-03T19:08:57.440Z,99.90
2022-09-03T19:12:24.776Z,99.90
2022-09-03T19:15:44.801Z,99.90
2022-09-03T19:18:48.975Z,99.90
2022-09-03T19:22:02.262Z,99.90
2022-09-03T19:25:06.309Z,99.90
2022-09-03T19:28:29.292Z,99.90
2022-09-03T19:31:52.376Z,99.90
2022-09-03T19:35:05.953Z,99.90
2022-09-03T19:38:26.361Z,99.90
2022-09-03T19:41:45.818Z,99.90
2022-09-03T19:45:25.184Z,99.90
2022-09-03T19:48:39.323Z,99.90
2022-09-03T19:52:35.292Z,99.90
2022-09-03T19:55:44.835Z,99.90
2022-09-03T19:58:52.007Z,99.90
2022-09-03T20:01:57.187Z,99.90
2022-09-03T20:05:19.064Z,99.90
2022-09-03T20:08:24.256Z,99.90
2022-09-03T20:11:20.410Z,99.90
2022-09-03T20:14:13.891Z,99.90
2022-09-03T20:17:06.135Z,99.90
2022-09-03T20:20:06.919Z,99.90
2022-09-03T20:23:12.518Z,99.90
2022-09-03T20:26:10.462Z,99.90
2022-09-03T20:29:07.245Z,99.90
2022-09-03T20:32:13.237Z,99.90
2022-09-03T20:35:22.242Z,99.90
2022-09-03T20:38:42.991Z,99.90
2022-09-03T20:41:34.770Z,99.90
2022-09-03T20:44:32.318Z,99.90
2022-09-03T20:47:41.383Z,99.90
2022-09-03T20:50:56.478Z,99.90
2022-09-03T20:54:19.565Z,99.90
2022-09-03T20:57:12.352Z,99.90
2022-09-03T21:00:13.554Z,99.90
2022-09-03T21:03:16.069Z,99.90
2022-09-03T21:06:25.682Z,99.90
2022-09-03T21:09:20.923Z,99.90
2022-09-03T21:12:57.258Z,99.90
2022-09-03T21:16:24.676Z,99.90
2022-09-03T21:19:32.076Z,99.90
2022-09-03T21:22:22.670Z,99.90
2022-09-03T21:25:12.122Z,99.90
2022-09-03T21:28:15.227Z,99.90
2022-09-03T21:31:02.716Z,99.90
2022-09-03T21:33:51.192Z,99.90
2022-09-03T21:36:39.325Z,99.90
2022-09-03T21:39:36.915Z,99.90
2022-09-03T21:42:52.870Z,99.90
2022-09-03T21:46:08.175Z,99.90
2022-09-03T21:49:02.987Z,99.90
2022-09-03T21:51:58.371Z,99.90
2022-09-03T21:54:44.151Z,99.90
2022-09-03T21:57:39.603Z,99.90
2022-09-03T22:00:32.541Z,99.90
2022-09-03T22:03:18.277Z,99.90
2022-09-03T22:06:14.144Z,99.90
2022-09-03T22:09:09.605Z,99.90
2022-09-03T22:12:50.332Z,99.90
2022-09-03T22:15:39.418Z,99.90
2022-09-03T22:18:31.672Z,99.60
2022-09-03T22:21:44.345Z,99.30
2022-09-03T22:24:39.112Z,99.20
2022-09-03T22:27:35.572Z,99.40
2022-09-03T22:30:21.500Z,99.90
2022-09-03T22:33:28.665Z,99.90
2022-09-03T22:36:16.188Z,99.90
2022-09-03T22:39:07.741Z,99.90
2022-09-03T22:42:08.602Z,99.90
2022-09-03T22:45:19.465Z,99.90
2022-09-03T22:48:27.435Z,99.90
2022-09-03T22:51:13.526Z,99.90
2022-09-03T22:54:17.480Z,99.90
2022-09-03T22:57:04.741Z,99.90
2022-09-03T23:00:04.927Z,99.90
2022-09-03T23:03:07.712Z,99.90
2022-09-03T23:06:07.785Z,99.90
2022-09-03T23:09:07.189Z,99.90
2022-09-03T23:12:00.735Z,99.90
2022-09-03T23:14:51.566Z,99.90
2022-09-03T23:17:42.810Z,99.90
2022-09-03T23:20:30.310Z,99.90
2022-09-03T23:23:28.756Z,99.90
2022-09-03T23:26:39.769Z,99.90
2022-09-03T23:29:33.810Z,99.90
2022-09-03T23:32:19.689Z,99.90
2022-09-03T23:35:18.144Z,99.90
2022-09-03T23:38:03.544Z,99.90
2022-09-03T23:40:50.548Z,99.90
2022-09-03T23:43:59.607Z,99.90
2022-09-03T23:47:21.600Z,99.90
2022-09-03T23:50:19.713Z,99.90
2022-09-03T23:53:29.386Z,99.90
2022-09-03T23:56:39.260Z,99.90
2022-09-03T23:59:57.304Z,99.90
